sensor_id;sensor_type;location;lat;lon;timestamp;temperature;humidity
3071;DHT22;1546;47.208;9.038;2022-09-30T00:00:32;10.00;99.90
3071;DHT22;1546;47.208;9.038;2022-09-30T00:02:59;9.90;99.90
3071;DHT22;1546;47.208;9.038;2022-09-30T00:05:26;9.90;99.90
3071;DHT22;1546;47.208;9.038;2022-09-30T00:07:53;9.90;99.90
3071;DHT22;1546;47.208;9.038;2022-09-30T00:10:20;10.00;99.90
3071;DHT22;1546;47.208;9.038;2022-09-30T00:12:47;10.00;99.90
3071;DHT22;1546;47.208;9.038;2022-09-30T00:15:15;10.00;99.90
3071;DHT22;1546;47.208;9.038;2022-09-30T00:17:42;10.00;99.90
3071;DHT22;1546;47.208;9.038;2022-09-30T00:20:09;10.10;99.90
3071;DHT22;1546;47.208;9.038;2022-09-30T00:22:36;10.10;99.90
3071;DHT22;1546;47.208;9.038;2022-09-30T00:25:03;10.10;99.90
3071;DHT22;1546;47.208;9.038;2022-09-30T00:27:30;9.90;99.90
3071;DHT22;1546;47.208;9.038;2022-09-30T00:29:57;9.90;99.90
3071;DHT22;1546;47.208;9.038;2022-09-30T00:32:25;9.90;99.90
3071;DHT22;1546;47.208;9.038;2022-09-30T00:34:52;9.90;99.90
3071;DHT22;1546;47.208;9.038;2022-09-30T00:37:19;9.90;99.90
3071;DHT22;1546;47.208;9.038;2022-09-30T00:39:45;9.90;99.90
3071;DHT22;1546;47.208;9.038;2022-09-30T00:42:13;10.10;99.90
3071;DHT22;1546;47.208;9.038;2022-09-30T00:44:46;10.10;99.90
3071;DHT22;1546;47.208;9.038;2022-09-30T00:47:39;9.90;99.90
3071;DHT22;1546;47.208;9.038;2022-09-30T00:50:16;9.90;99.90
3071;DHT22;1546;47.208;9.038;2022-09-30T00:52:47;9.80;99.90
3071;DHT22;1546;47.208;9.038;2022-09-30T00:55:24;9.80;99.90
3071;DHT22;1546;47.208;9.038;2022-09-30T00:57:53;9.90;99.90
3071;DHT22;1546;47.208;9.038;2022-09-30T01:00:20;10.10;99.90
3071;DHT22;1546;47.208;9.038;2022-09-30T01:02:49;10.10;99.90
3071;DHT22;1546;47.208;9.038;2022-09-30T01:05:15;10.20;99.90
3071;DHT22;1546;47.208;9.038;2022-09-30T01:07:42;10.10;99.90
3071;DHT22;1546;47.208;9.038;2022-09-30T01:10:09;10.20;99.90
3071;DHT22;1546;47.208;9.038;2022-09-30T01:12:36;10.30;99.90
3071;DHT22;1546;47.208;9.038;2022-09-30T01:15:05;10.40;99.90
3071;DHT22;1546;47.208;9.038;2022-09-30T01:17:38;10.50;99.90
3071;DHT22;1546;47.208;9.038;2022-09-30T01:20:30;10.40;99.90
3071;DHT22;1546;47.208;9.038;2022-09-30T01:23:18;10.30;99.90
3071;DHT22;1546;47.208;9.038;2022-09-30T01:26:17;10.40;99.90
3071;DHT22;1546;47.208;9.038;2022-09-30T01:29:21;10.40;99.90
3071;DHT22;1546;47.208;9.038;2022-09-30T01:31:59;10.40;99.90
3071;DHT22;1546;47.208;9.038;2022-09-30T01:34:35;10.40;99.90
3071;DHT22;1546;47.208;9.038;2022-09-30T01:37:09;10.40;99.90
3071;DHT22;1546;47.208;9.038;2022-09-30T01:39:48;10.40;99.90
3071;DHT22;1546;47.208;9.038;2022-09-30T01:42:22;10.30;99.90
3071;DHT22;1546;47.208;9.038;2022-09-30T01:44:55;10.30;99.90
3071;DHT22;1546;47.208;9.038;2022-09-30T01:47:32;10.40;99.90
3071;DHT22;1546;47.208;9.038;2022-09-30T01:50:04;10.50;99.90
3071;DHT22;1546;47.208;9.038;2022-09-30T01:52:37;10.30;99.90
3071;DHT22;1546;47.208;9.038;2022-09-30T01:55:12;10.20;99.90
3071;DHT22;1546;47.208;9.038;2022-09-30T01:57:46;10.10;99.90
3071;DHT22;1546;47.208;9.038;2022-09-30T02:00:15;10.20;99.90
3071;DHT22;1546;47.208;9.038;2022-09-30T02:02:47;10.00;99.90
3071;DHT22;1546;47.208;9.038;2022-09-30T02:05:19;10.10;99.90
3071;DHT22;1546;47.208;9.038;2022-09-30T02:07:51;10.10;99.90
3071;DHT22;1546;47.208;9.038;2022-09-30T02:10:23;10.10;99.90
3071;DHT22;1546;47.208;9.038;2022-09-30T02:12:55;10.10;99.90
3071;DHT22;1546;47.208;9.038;2022-09-30T02:15:25;10.10;99.90
3071;DHT22;1546;47.208;9.038;2022-09-30T02:17:58;10.20;99.90
3071;DHT22;1546;47.208;9.038;2022-09-30T02:20:30;10.20;99.90
3071;DHT22;1546;47.208;9.038;2022-09-30T02:23:02;10.30;99.90
3071;DHT22;1546;47.208;9.038;2022-09-30T02:25:35;10.30;99.90
3071;DHT22;1546;47.208;9.038;2022-09-30T02:28:06;10.20;99.90
3071;DHT22;1546;47.208;9.038;2022-09-30T02:30:35;10.10;99.90
3071;DHT22;1546;47.208;9.038;2022-09-30T02:33:08;10.00;99.90
3071;DHT22;1546;47.208;9.038;2022-09-30T02:35:41;10.00;99.90
3071;DHT22;1546;47.208;9.038;2022-09-30T02:38:14;9.80;99.90
3071;DHT22;1546;47.208;9.038;2022-09-30T02:40:45;9.80;99.90
3071;DHT22;1546;47.208;9.038;2022-09-30T02:43:14;9.80;99.90
3071;DHT22;1546;47.208;9.038;2022-09-30T02:45:46;9.90;99.90
3071;DHT22;1546;47.208;9.038;2022-09-30T02:48:25;9.90;99.90
3071;DHT22;1546;47.208;9.038;2022-09-30T02:50:59;9.90;99.90
3071;DHT22;1546;47.208;9.038;2022-09-30T02:53:32;10.00;99.90
3071;DHT22;1546;47.208;9.038;2022-09-30T02:56:12;9.90;99.90
3071;DHT22;1546;47.208;9.038;2022-09-30T02:58:41;10.00;99.90
3071;DHT22;1546;47.208;9.038;2022-09-30T03:01:10;10.00;99.90
3071;DHT22;1546;47.208;9.038;2022-09-30T03:03:41;10.00;99.90
3071;DHT22;1546;47.208;9.038;2022-09-30T03:06:09;10.20;99.90
3071;DHT22;1546;47.208;9.038;2022-09-30T03:08:36;10.00;99.90
3071;DHT22;1546;47.208;9.038;2022-09-30T03:11:03;10.00;99.90
3071;DHT22;1546;47.208;9.038;2022-09-30T03:13:53;10.00;99.90
3071;DHT22;1546;47.208;9.038;2022-09-30T03:16:27;10.00;99.90
3071;DHT22;1546;47.208;9.038;2022-09-30T03:19:09;10.30;99.90
3071;DHT22;1546;47.208;9.038;2022-09-30T03:21:52;10.40;99.90
3071;DHT22;1546;47.208;9.038;2022-09-30T03:24:45;10.50;99.90
3071;DHT22;1546;47.208;9.038;2022-09-30T03:27:28;10.50;99.90
3071;DHT22;1546;47.208;9.038;2022-09-30T03:30:00;10.50;99.90
3071;DHT22;1546;47.208;9.038;2022-09-30T03:32:52;10.50;99.90
3071;DHT22;1546;47.208;9.038;2022-09-30T03:35:30;10.60;99.90
3071;DHT22;1546;47.208;9.038;2022-09-30T03:38:05;10.70;99.90
3071;DHT22;1546;47.208;9.038;2022-09-30T03:40:40;10.60;99.90
3071;DHT22;1546;47.208;9.038;2022-09-30T03:43:18;10.50;99.90
3071;DHT22;1546;47.208;9.038;2022-09-30T03:45:51;10.40;99.90
3071;DHT22;1546;47.208;9.038;2022-09-30T03:48:20;10.40;99.90
3071;DHT22;1546;47.208;9.038;2022-09-30T03:50:49;10.30;99.90
3071;DHT22;1546;47.208;9.038;2022-09-30T03:53:16;10.40;99.90
3071;DHT22;1546;47.208;9.038;2022-09-30T03:55:46;10.50;99.90
3071;DHT22;1546;47.208;9.038;2022-09-30T03:58:14;10.50;99.90
3071;DHT22;1546;47.208;9.038;2022-09-30T04:00:46;10.60;99.90
3071;DHT22;1546;47.208;9.038;2022-09-30T04:03:13;10.70;99.90
3071;DHT22;1546;47.208;9.038;2022-09-30T04:05:40;10.60;99.90
3071;DHT22;1546;47.208;9.038;2022-09-30T04:08:08;10.50;99.90
3071;DHT22;1546;47.208;9.038;2022-09-30T04:10:35;10.40;99.90
3071;DHT22;1546;47.208;9.038;2022-09-30T04:13:02;10.50;99.90
3071;DHT22;1546;47.208;9.038;2022-09-30T04:15:29;10.40;99.90
3071;DHT22;1546;47.208;9.038;2022-09-30T04:17:57;10.30;99.90
3071;DHT22;1546;47.208;9.038;2022-09-30T04:20:24;10.30;99.90
3071;DHT22;1546;47.208;9.038;2022-09-30T04:22:51;10.40;99.90
3071;DHT22;1546;47.208;9.038;2022-09-30T04:25:19;10.50;99.90
3071;DHT22;1546;47.208;9.038;2022-09-30T04:27:46;10.60;99.90
3071;DHT22;1546;47.208;9.038;2022-09-30T04:30:12;10.70;99.90
3071;DHT22;1546;47.208;9.038;2022-09-30T04:32:41;10.60;99.90
3071;DHT22;1546;47.208;9.038;2022-09-30T04:35:10;10.70;99.90
3071;DHT22;1546;47.208;9.038;2022-09-30T04:37:40;10.60;99.90
3071;DHT22;1546;47.208;9.038;2022-09-30T04:40:08;10.50;99.90
3071;DHT22;1546;47.208;9.038;2022-09-30T04:42:37;10.40;99.90
3071;DHT22;1546;47.208;9.038;2022-09-30T04:45:04;10.30;99.90
3071;DHT22;1546;47.208;9.038;2022-09-30T04:47:31;10.30;99.90
3071;DHT22;1546;47.208;9.038;2022-09-30T04:49:58;10.30;99.90
3071;DHT22;1546;47.208;9.038;2022-09-30T04:52:25;10.40;99.90
3071;DHT22;1546;47.208;9.038;2022-09-30T04:54:52;10.50;99.90
3071;DHT22;1546;47.208;9.038;2022-09-30T04:57:19;10.60;99.90
3071;DHT22;1546;47.208;9.038;2022-09-30T04:59:47;10.70;99.90
3071;DHT22;1546;47.208;9.038;2022-09-30T05:02:15;10.70;99.90
3071;DHT22;1546;47.208;9.038;2022-09-30T05:04:42;10.80;99.90
3071;DHT22;1546;47.208;9.038;2022-09-30T05:07:09;10.80;99.90
3071;DHT22;1546;47.208;9.038;2022-09-30T05:09:36;10.90;99.90
3071;DHT22;1546;47.208;9.038;2022-09-30T05:12:03;10.90;99.90
3071;DHT22;1546;47.208;9.038;2022-09-30T05:14:30;10.80;99.90
3071;DHT22;1546;47.208;9.038;2022-09-30T05:16:59;10.80;99.90
3071;DHT22;1546;47.208;9.038;2022-09-30T05:19:26;10.80;99.90
3071;DHT22;1546;47.208;9.038;2022-09-30T05:21:53;10.90;99.90
3071;DHT22;1546;47.208;9.038;2022-09-30T05:24:20;10.80;99.90
3071;DHT22;1546;47.208;9.038;2022-09-30T05:26:47;10.80;99.90
3071;DHT22;1546;47.208;9.038;2022-09-30T05:29:14;10.80;99.90
3071;DHT22;1546;47.208;9.038;2022-09-30T05:31:41;10.80;99.90
3071;DHT22;1546;47.208;9.038;2022-09-30T05:34:09;10.80;99.90
3071;DHT22;1546;47.208;9.038;2022-09-30T05:36:36;10.90;99.90
3071;DHT22;1546;47.208;9.038;2022-09-30T05:39:03;10.90;99.90
3071;DHT22;1546;47.208;9.038;2022-09-30T05:41:29;10.90;99.90
3071;DHT22;1546;47.208;9.038;2022-09-30T05:43:57;10.80;99.90
3071;DHT22;1546;47.208;9.038;2022-09-30T05:46:26;10.60;99.90
3071;DHT22;1546;47.208;9.038;2022-09-30T05:48:53;10.50;99.90
3071;DHT22;1546;47.208;9.038;2022-09-30T05:51:21;10.60;99.90
3071;DHT22;1546;47.208;9.038;2022-09-30T05:53:48;10.80;99.90
3071;DHT22;1546;47.208;9.038;2022-09-30T05:56:16;10.90;99.90
3071;DHT22;1546;47.208;9.038;2022-09-30T05:58:43;10.90;99.90
3071;DHT22;1546;47.208;9.038;2022-09-30T06:01:14;10.90;99.90
3071;DHT22;1546;47.208;9.038;2022-09-30T06:03:41;10.90;99.90
3071;DHT22;1546;47.208;9.038;2022-09-30T06:06:08;10.80;99.90
3071;DHT22;1546;47.208;9.038;2022-09-30T06:08:37;10.90;99.90
3071;DHT22;1546;47.208;9.038;2022-09-30T06:11:08;10.90;99.90
3071;DHT22;1546;47.208;9.038;2022-09-30T06:13:36;10.90;99.90
3071;DHT22;1546;47.208;9.038;2022-09-30T06:16:05;11.00;99.90
3071;DHT22;1546;47.208;9.038;2022-09-30T06:18:32;11.10;99.90
3071;DHT22;1546;47.208;9.038;2022-09-30T06:21:00;11.20;99.90
3071;DHT22;1546;47.208;9.038;2022-09-30T06:23:27;11.30;99.90
3071;DHT22;1546;47.208;9.038;2022-09-30T06:25:56;11.30;99.90
3071;DHT22;1546;47.208;9.038;2022-09-30T06:28:23;11.40;99.90
3071;DHT22;1546;47.208;9.038;2022-09-30T06:30:51;11.50;99.90
3071;DHT22;1546;47.208;9.038;2022-09-30T06:33:18;11.50;99.90
3071;DHT22;1546;47.208;9.038;2022-09-30T06:35:46;11.50;99.90
3071;DHT22;1546;47.208;9.038;2022-09-30T06:38:13;11.40;99.90
3071;DHT22;1546;47.208;9.038;2022-09-30T06:40:41;11.30;99.90
3071;DHT22;1546;47.208;9.038;2022-09-30T06:43:10;11.30;99.90
3071;DHT22;1546;47.208;9.038;2022-09-30T06:45:37;11.50;99.90
3071;DHT22;1546;47.208;9.038;2022-09-30T06:48:05;11.60;99.90
3071;DHT22;1546;47.208;9.038;2022-09-30T06:50:32;11.70;99.90
3071;DHT22;1546;47.208;9.038;2022-09-30T06:53:00;11.80;99.90
3071;DHT22;1546;47.208;9.038;2022-09-30T06:55:28;11.80;99.90
3071;DHT22;1546;47.208;9.038;2022-09-30T06:57:56;11.90;99.90
3071;DHT22;1546;47.208;9.038;2022-09-30T07:00:25;11.90;99.90
3071;DHT22;1546;47.208;9.038;2022-09-30T07:02:53;12.00;99.90
3071;DHT22;1546;47.208;9.038;2022-09-30T07:05:21;12.10;99.90
3071;DHT22;1546;47.208;9.038;2022-09-30T07:07:50;12.20;99.90
3071;DHT22;1546;47.208;9.038;2022-09-30T07:10:17;12.30;99.90
3071;DHT22;1546;47.208;9.038;2022-09-30T07:12:48;12.20;99.90
3071;DHT22;1546;47.208;9.038;2022-09-30T07:15:15;12.20;99.90
3071;DHT22;1546;47.208;9.038;2022-09-30T07:17:43;12.20;99.90
3071;DHT22;1546;47.208;9.038;2022-09-30T07:20:10;12.10;99.90
3071;DHT22;1546;47.208;9.038;2022-09-30T07:22:37;12.10;99.90
3071;DHT22;1546;47.208;9.038;2022-09-30T07:25:05;12.10;99.90
3071;DHT22;1546;47.208;9.038;2022-09-30T07:27:34;12.10;99.90
3071;DHT22;1546;47.208;9.038;2022-09-30T07:30:02;12.00;99.90
3071;DHT22;1546;47.208;9.038;2022-09-30T07:32:30;11.90;99.90
3071;DHT22;1546;47.208;9.038;2022-09-30T07:34:58;11.80;99.90
3071;DHT22;1546;47.208;9.038;2022-09-30T07:37:25;11.70;99.90
3071;DHT22;1546;47.208;9.038;2022-09-30T07:39:52;11.50;99.90
3071;DHT22;1546;47.208;9.038;2022-09-30T07:42:19;11.50;99.90
3071;DHT22;1546;47.208;9.038;2022-09-30T07:44:47;11.50;99.90
3071;DHT22;1546;47.208;9.038;2022-09-30T07:47:16;11.50;99.90
3071;DHT22;1546;47.208;9.038;2022-09-30T07:49:43;11.60;99.90
3071;DHT22;1546;47.208;9.038;2022-09-30T07:52:12;11.80;99.90
3071;DHT22;1546;47.208;9.038;2022-09-30T07:54:40;12.10;99.90
3071;DHT22;1546;47.208;9.038;2022-09-30T07:57:07;12.30;99.90
3071;DHT22;1546;47.208;9.038;2022-09-30T07:59:36;12.40;99.90
3071;DHT22;1546;47.208;9.038;2022-09-30T08:02:05;12.40;99.90
3071;DHT22;1546;47.208;9.038;2022-09-30T08:04:32;12.40;99.90
3071;DHT22;1546;47.208;9.038;2022-09-30T08:07:01;12.40;99.90
3071;DHT22;1546;47.208;9.038;2022-09-30T08:09:29;12.50;99.90
3071;DHT22;1546;47.208;9.038;2022-09-30T08:11:56;12.40;99.90
3071;DHT22;1546;47.208;9.038;2022-09-30T08:14:26;12.50;99.90
3071;DHT22;1546;47.208;9.038;2022-09-30T08:16:53;12.60;99.90
3071;DHT22;1546;47.208;9.038;2022-09-30T08:19:22;12.50;99.90
3071;DHT22;1546;47.208;9.038;2022-09-30T08:21:50;12.50;99.90
3071;DHT22;1546;47.208;9.038;2022-09-30T08:24:18;12.40;99.90
3071;DHT22;1546;47.208;9.038;2022-09-30T08:26:47;12.50;99.90
3071;DHT22;1546;47.208;9.038;2022-09-30T08:29:14;12.60;99.90
3071;DHT22;1546;47.208;9.038;2022-09-30T08:31:41;12.70;99.90
3071;DHT22;1546;47.208;9.038;2022-09-30T08:34:07;12.90;99.90
3071;DHT22;1546;47.208;9.038;2022-09-30T08:36:34;13.20;99.90
3071;DHT22;1546;47.208;9.038;2022-09-30T08:39:01;13.20;99.90
3071;DHT22;1546;47.208;9.038;2022-09-30T08:41:57;12.90;99.90
3071;DHT22;1546;47.208;9.038;2022-09-30T08:44:38;12.80;99.90
3071;DHT22;1546;47.208;9.038;2022-09-30T08:47:22;12.90;99.90
3071;DHT22;1546;47.208;9.038;2022-09-30T08:50:03;13.20;99.90
3071;DHT22;1546;47.208;9.038;2022-09-30T08:52:36;13.40;99.90
3071;DHT22;1546;47.208;9.038;2022-09-30T08:55:05;13.60;99.90
3071;DHT22;1546;47.208;9.038;2022-09-30T08:57:37;13.80;99.90
3071;DHT22;1546;47.208;9.038;2022-09-30T09:00:07;13.90;99.90
3071;DHT22;1546;47.208;9.038;2022-09-30T09:02:42;13.80;99.90
3071;DHT22;1546;47.208;9.038;2022-09-30T09:05:16;13.90;99.90
3071;DHT22;1546;47.208;9.038;2022-09-30T09:07:49;14.00;99.90
3071;DHT22;1546;47.208;9.038;2022-09-30T09:10:26;14.00;99.90
3071;DHT22;1546;47.208;9.038;2022-09-30T09:12:59;14.10;99.90
3071;DHT22;1546;47.208;9.038;2022-09-30T09:15:44;14.20;99.90
3071;DHT22;1546;47.208;9.038;2022-09-30T09:18:28;14.30;99.90
3071;DHT22;1546;47.208;9.038;2022-09-30T09:21:13;14.10;99.90
3071;DHT22;1546;47.208;9.038;2022-09-30T09:23:42;13.50;99.90
3071;DHT22;1546;47.208;9.038;2022-09-30T09:26:10;13.00;99.90
3071;DHT22;1546;47.208;9.038;2022-09-30T09:28:43;12.80;99.90
3071;DHT22;1546;47.208;9.038;2022-09-30T09:31:14;12.80;99.90
3071;DHT22;1546;47.208;9.038;2022-09-30T09:33:42;12.90;99.90
3071;DHT22;1546;47.208;9.038;2022-09-30T09:36:24;12.80;99.90
3071;DHT22;1546;47.208;9.038;2022-09-30T09:39:06;12.80;99.90
3071;DHT22;1546;47.208;9.038;2022-09-30T09:41:42;13.00;99.90
3071;DHT22;1546;47.208;9.038;2022-09-30T09:44:20;13.30;99.90
3071;DHT22;1546;47.208;9.038;2022-09-30T09:46:52;13.60;99.90
3071;DHT22;1546;47.208;9.038;2022-09-30T09:49:36;13.90;99.90
3071;DHT22;1546;47.208;9.038;2022-09-30T09:52:27;13.90;99.90
3071;DHT22;1546;47.208;9.038;2022-09-30T09:55:01;13.90;99.90
3071;DHT22;1546;47.208;9.038;2022-09-30T09:57:28;14.00;99.90
3071;DHT22;1546;47.208;9.038;2022-09-30T09:59:59;13.90;99.90
3071;DHT22;1546;47.208;9.038;2022-09-30T10:03:01;13.90;99.90
3071;DHT22;1546;47.208;9.038;2022-09-30T10:05:30;13.80;99.90
3071;DHT22;1546;47.208;9.038;2022-09-30T10:08:14;13.60;99.90
3071;DHT22;1546;47.208;9.038;2022-09-30T10:10:47;13.60;99.90
3071;DHT22;1546;47.208;9.038;2022-09-30T10:13:20;13.70;99.90
3071;DHT22;1546;47.208;9.038;2022-09-30T10:15:50;13.80;99.90
3071;DHT22;1546;47.208;9.038;2022-09-30T10:18:24;13.80;99.90
3071;DHT22;1546;47.208;9.038;2022-09-30T10:20:55;14.10;99.90
3071;DHT22;1546;47.208;9.038;2022-09-30T10:23:27;14.20;99.90
3071;DHT22;1546;47.208;9.038;2022-09-30T10:26:03;14.50;99.90
3071;DHT22;1546;47.208;9.038;2022-09-30T10:28:42;14.50;99.90
3071;DHT22;1546;47.208;9.038;2022-09-30T10:31:15;14.40;99.90
3071;DHT22;1546;47.208;9.038;2022-09-30T10:33:45;14.40;99.90
3071;DHT22;1546;47.208;9.038;2022-09-30T10:36:15;14.50;99.90
3071;DHT22;1546;47.208;9.038;2022-09-30T10:38:48;14.60;99.90
3071;DHT22;1546;47.208;9.038;2022-09-30T10:41:21;14.50;99.90
3071;DHT22;1546;47.208;9.038;2022-09-30T10:43:51;14.40;99.90
3071;DHT22;1546;47.208;9.038;2022-09-30T10:46:23;14.50;99.90
3071;DHT22;1546;47.208;9.038;2022-09-30T10:48:52;14.50;99.90
3071;DHT22;1546;47.208;9.038;2022-09-30T10:51:32;14.40;99.90
3071;DHT22;1546;47.208;9.038;2022-09-30T10:54:01;14.40;99.90
3071;DHT22;1546;47.208;9.038;2022-09-30T10:56:41;14.40;99.90
3071;DHT22;1546;47.208;9.038;2022-09-30T10:59:16;14.60;99.90
3071;DHT22;1546;47.208;9.038;2022-09-30T11:01:49;14.70;99.90
3071;DHT22;1546;47.208;9.038;2022-09-30T11:04:23;14.70;99.90
3071;DHT22;1546;47.208;9.038;2022-09-30T11:06:54;14.80;99.90
3071;DHT22;1546;47.208;9.038;2022-09-30T11:09:28;14.80;99.90
3071;DHT22;1546;47.208;9.038;2022-09-30T11:12:01;14.90;99.90
3071;DHT22;1546;47.208;9.038;2022-09-30T11:14:34;15.10;99.90
3071;DHT22;1546;47.208;9.038;2022-09-30T11:17:14;15.20;99.90
3071;DHT22;1546;47.208;9.038;2022-09-30T11:19:47;15.30;99.90
3071;DHT22;1546;47.208;9.038;2022-09-30T11:22:27;15.40;99.90
3071;DHT22;1546;47.208;9.038;2022-09-30T11:24:55;15.70;99.90
3071;DHT22;1546;47.208;9.038;2022-09-30T11:27:29;15.90;99.90
3071;DHT22;1546;47.208;9.038;2022-09-30T11:30:03;15.50;99.90
3071;DHT22;1546;47.208;9.038;2022-09-30T11:32:42;15.50;99.90
3071;DHT22;1546;47.208;9.038;2022-09-30T11:35:31;15.70;99.90
3071;DHT22;1546;47.208;9.038;2022-09-30T11:38:09;15.40;99.90
3071;DHT22;1546;47.208;9.038;2022-09-30T11:40:44;15.40;99.90
3071;DHT22;1546;47.208;9.038;2022-09-30T11:43:23;15.30;99.90
3071;DHT22;1546;47.208;9.038;2022-09-30T11:46:34;15.40;99.90
3071;DHT22;1546;47.208;9.038;2022-09-30T11:49:15;15.50;99.90
3071;DHT22;1546;47.208;9.038;2022-09-30T11:51:50;15.60;99.90
3071;DHT22;1546;47.208;9.038;2022-09-30T11:54:27;15.70;99.90
3071;DHT22;1546;47.208;9.038;2022-09-30T11:57:04;15.70;99.90
3071;DHT22;1546;47.208;9.038;2022-09-30T11:59:35;15.60;99.90
3071;DHT22;1546;47.208;9.038;2022-09-30T12:02:20;15.40;99.90
3071;DHT22;1546;47.208;9.038;2022-09-30T12:04:50;15.20;99.90
3071;DHT22;1546;47.208;9.038;2022-09-30T12:07:24;15.00;99.90
3071;DHT22;1546;47.208;9.038;2022-09-30T12:09:58;15.10;99.90
3071;DHT22;1546;47.208;9.038;2022-09-30T12:12:27;15.40;99.90
3071;DHT22;1546;47.208;9.038;2022-09-30T12:14:56;15.60;99.90
3071;DHT22;1546;47.208;9.038;2022-09-30T12:17:27;15.50;99.90
3071;DHT22;1546;47.208;9.038;2022-09-30T12:20:01;15.70;99.90
3071;DHT22;1546;47.208;9.038;2022-09-30T12:22:34;15.50;99.90
3071;DHT22;1546;47.208;9.038;2022-09-30T12:25:12;15.50;99.90
3071;DHT22;1546;47.208;9.038;2022-09-30T12:27:44;15.50;99.90
3071;DHT22;1546;47.208;9.038;2022-09-30T12:30:14;15.40;99.90
3071;DHT22;1546;47.208;9.038;2022-09-30T12:33:18;15.90;99.90
3071;DHT22;1546;47.208;9.038;2022-09-30T12:36:28;15.90;99.90
3071;DHT22;1546;47.208;9.038;2022-09-30T12:39:28;16.30;99.90
3071;DHT22;1546;47.208;9.038;2022-09-30T12:42:20;16.70;99.90
3071;DHT22;1546;47.208;9.038;2022-09-30T12:45:03;17.50;99.90
3071;DHT22;1546;47.208;9.038;2022-09-30T12:47:35;18.00;99.60
3071;DHT22;1546;47.208;9.038;2022-09-30T12:50:06;18.50;99.20
3071;DHT22;1546;47.208;9.038;2022-09-30T12:52:35;18.70;97.80
3071;DHT22;1546;47.208;9.038;2022-09-30T12:55:07;19.40;97.70
3071;DHT22;1546;47.208;9.038;2022-09-30T12:57:38;20.10;95.90
3071;DHT22;1546;47.208;9.038;2022-09-30T13:00:14;19.80;96.50
3071;DHT22;1546;47.208;9.038;2022-09-30T13:02:42;19.30;96.10
3071;DHT22;1546;47.208;9.038;2022-09-30T13:05:51;18.80;97.10
3071;DHT22;1546;47.208;9.038;2022-09-30T13:11:31;18.70;96.90
3071;DHT22;1546;47.208;9.038;2022-09-30T13:14:10;18.60;96.90
3071;DHT22;1546;47.208;9.038;2022-09-30T13:17:20;18.70;96.40
3071;DHT22;1546;47.208;9.038;2022-09-30T13:19:48;18.80;95.80
3071;DHT22;1546;47.208;9.038;2022-09-30T13:22:56;19.00;96.60
3071;DHT22;1546;47.208;9.038;2022-09-30T13:25:25;18.70;94.60
3071;DHT22;1546;47.208;9.038;2022-09-30T13:28:08;18.90;95.00
3071;DHT22;1546;47.208;9.038;2022-09-30T13:31:11;19.00;94.90
3071;DHT22;1546;47.208;9.038;2022-09-30T13:33:41;18.80;94.10
3071;DHT22;1546;47.208;9.038;2022-09-30T13:36:25;18.50;94.50
3071;DHT22;1546;47.208;9.038;2022-09-30T13:39:18;18.50;95.50
3071;DHT22;1546;47.208;9.038;2022-09-30T13:41:54;18.70;95.00
3071;DHT22;1546;47.208;9.038;2022-09-30T13:44:27;19.40;93.80
3071;DHT22;1546;47.208;9.038;2022-09-30T13:46:59;19.50;92.60
3071;DHT22;1546;47.208;9.038;2022-09-30T13:49:36;19.50;93.00
3071;DHT22;1546;47.208;9.038;2022-09-30T13:52:06;19.50;93.30
3071;DHT22;1546;47.208;9.038;2022-09-30T13:54:36;19.80;93.60
3071;DHT22;1546;47.208;9.038;2022-09-30T13:57:06;19.50;93.20
3071;DHT22;1546;47.208;9.038;2022-09-30T13:59:51;19.20;93.10
3071;DHT22;1546;47.208;9.038;2022-09-30T14:05:45;19.00;94.30
3071;DHT22;1546;47.208;9.038;2022-09-30T14:08:43;19.00;94.90
3071;DHT22;1546;47.208;9.038;2022-09-30T14:11:25;18.50;93.70
3071;DHT22;1546;47.208;9.038;2022-09-30T14:14:11;17.90;94.30
3071;DHT22;1546;47.208;9.038;2022-09-30T14:17:04;17.50;95.40
3071;DHT22;1546;47.208;9.038;2022-09-30T14:19:50;17.30;96.00
3071;DHT22;1546;47.208;9.038;2022-09-30T14:22:19;17.30;95.70
3071;DHT22;1546;47.208;9.038;2022-09-30T14:24:50;17.30;95.90
3071;DHT22;1546;47.208;9.038;2022-09-30T14:27:29;17.10;95.60
3071;DHT22;1546;47.208;9.038;2022-09-30T14:30:05;17.20;95.80
3071;DHT22;1546;47.208;9.038;2022-09-30T14:32:42;17.30;96.00
3071;DHT22;1546;47.208;9.038;2022-09-30T14:35:14;17.00;95.70
3071;DHT22;1546;47.208;9.038;2022-09-30T14:37:45;16.70;96.50
3071;DHT22;1546;47.208;9.038;2022-09-30T14:40:16;16.40;96.80
3071;DHT22;1546;47.208;9.038;2022-09-30T14:42:44;16.40;97.40
3071;DHT22;1546;47.208;9.038;2022-09-30T14:45:21;16.10;97.90
3071;DHT22;1546;47.208;9.038;2022-09-30T14:47:54;15.90;98.70
3071;DHT22;1546;47.208;9.038;2022-09-30T14:50:25;15.70;98.60
3071;DHT22;1546;47.208;9.038;2022-09-30T14:52:53;15.60;98.40
3071;DHT22;1546;47.208;9.038;2022-09-30T14:55:26;15.40;99.00
3071;DHT22;1546;47.208;9.038;2022-09-30T14:57:56;15.40;99.30
3071;DHT22;1546;47.208;9.038;2022-09-30T15:00:43;15.50;99.60
3071;DHT22;1546;47.208;9.038;2022-09-30T15:03:11;15.40;99.60
3071;DHT22;1546;47.208;9.038;2022-09-30T15:05:38;15.40;99.90
3071;DHT22;1546;47.208;9.038;2022-09-30T15:08:09;15.30;99.60
3071;DHT22;1546;47.208;9.038;2022-09-30T15:10:36;15.20;99.60
3071;DHT22;1546;47.208;9.038;2022-09-30T15:13:07;15.10;99.80
3071;DHT22;1546;47.208;9.038;2022-09-30T15:15:35;15.00;99.90
3071;DHT22;1546;47.208;9.038;2022-09-30T15:18:27;15.00;99.90
3071;DHT22;1546;47.208;9.038;2022-09-30T15:20:57;15.20;99.80
3071;DHT22;1546;47.208;9.038;2022-09-30T15:23:26;15.40;99.20
3071;DHT22;1546;47.208;9.038;2022-09-30T15:25:54;15.60;99.20
3071;DHT22;1546;47.208;9.038;2022-09-30T15:28:23;15.80;99.10
3071;DHT22;1546;47.208;9.038;2022-09-30T15:30:50;16.00;98.80
3071;DHT22;1546;47.208;9.038;2022-09-30T15:33:21;15.90;98.90
3071;DHT22;1546;47.208;9.038;2022-09-30T15:35:50;16.00;99.60
3071;DHT22;1546;47.208;9.038;2022-09-30T15:38:22;15.90;99.90
3071;DHT22;1546;47.208;9.038;2022-09-30T15:40:54;15.90;99.90
3071;DHT22;1546;47.208;9.038;2022-09-30T15:43:31;15.90;99.90
3071;DHT22;1546;47.208;9.038;2022-09-30T15:46:24;15.70;99.90
3071;DHT22;1546;47.208;9.038;2022-09-30T15:48:53;15.60;99.90
3071;DHT22;1546;47.208;9.038;2022-09-30T15:51:31;15.40;99.90
3071;DHT22;1546;47.208;9.038;2022-09-30T15:54:00;15.30;99.90
3071;DHT22;1546;47.208;9.038;2022-09-30T15:56:36;15.20;99.90
3071;DHT22;1546;47.208;9.038;2022-09-30T15:59:05;15.10;99.90
3071;DHT22;1546;47.208;9.038;2022-09-30T16:01:37;14.90;99.90
3071;DHT22;1546;47.208;9.038;2022-09-30T16:04:08;14.80;99.90
3071;DHT22;1546;47.208;9.038;2022-09-30T16:06:46;14.70;99.90
3071;DHT22;1546;47.208;9.038;2022-09-30T16:09:26;14.60;99.90
3071;DHT22;1546;47.208;9.038;2022-09-30T16:12:04;14.50;99.90
3071;DHT22;1546;47.208;9.038;2022-09-30T16:14:38;14.40;99.90
3071;DHT22;1546;47.208;9.038;2022-09-30T16:17:15;14.40;99.90
3071;DHT22;1546;47.208;9.038;2022-09-30T16:19:49;14.40;99.90
3071;DHT22;1546;47.208;9.038;2022-09-30T16:22:46;14.40;99.90
3071;DHT22;1546;47.208;9.038;2022-09-30T16:25:18;14.40;99.90
3071;DHT22;1546;47.208;9.038;2022-09-30T16:27:46;14.30;99.90
3071;DHT22;1546;47.208;9.038;2022-09-30T16:30:14;14.20;99.90
3071;DHT22;1546;47.208;9.038;2022-09-30T16:32:43;14.20;99.90
3071;DHT22;1546;47.208;9.038;2022-09-30T16:35:17;14.30;99.90
3071;DHT22;1546;47.208;9.038;2022-09-30T16:37:46;14.20;99.90
3071;DHT22;1546;47.208;9.038;2022-09-30T16:40:19;14.20;99.90
3071;DHT22;1546;47.208;9.038;2022-09-30T16:42:47;14.00;99.90
3071;DHT22;1546;47.208;9.038;2022-09-30T16:45:15;13.90;99.90